Аэропорт: Кемерово. Кемерово

ICAO: UNEE

METAR:
2019/05/26 14:00
UNEE 261400Z 26004MPS 9999 FEW046 07/M01 Q1022 R23/CLRD60 NOSIG RMK QFE744
METAR:
2019/05/26 12:21
TAF UNEE 261100Z 2612/2712 25008G15MPS 9999 BKN020CB 
     FM261400 20003G08MPS CAVOK 
      TEMPO 2618/2703 3100 BR 
      BECMG 2703/2705 26005G10MPS